Time;durP1;ratioP1;P1;durP2;ratioP2;P2;SDS_P1;SDS_P2;PMS_P1;PMS_P2;Temp;Humidity;BMP_temperature;BMP_pressure;BME280_temperature;BME280_humidity;BME280_pressure;Samples;Min_cycle;Max_cycle;Signal;HPM_P1;HPM_P2
2023/10/17 00:01:54;;;;;;;4.33;1.80;;;;;;;18.61;57.46;100372.75;5065252;28;20503;-62
2023/10/17 00:06:54;;;;;;;4.77;2.10;;;;;;;18.59;57.50;100366.59;5071942;28;20860;-62
2023/10/17 00:09:24;;;;;;;5.03;1.70;;;;;;;18.62;57.51;100368.66;5067070;28;20308;-62
2023/10/17 00:14:20;;;;;;;2.70;1.63;;;;;;;18.61;57.88;100374.78;5070964;28;20951;-62
2023/10/17 00:16:45;;;;;;;2.87;1.67;;;;;;;18.60;58.08;100371.09;5071316;28;20429;-62
2023/10/17 00:19:11;;;;;;;2.23;1.20;;;;;;;18.61;57.98;100364.16;5072061;28;20530;-62
2023/10/17 00:21:38;;;;;;;3.30;1.60;;;;;;;18.59;58.07;100355.16;5068847;28;20678;-62
2023/10/17 00:24:12;;;;;;;3.30;1.57;;;;;;;18.59;58.04;100369.44;5072315;28;20187;-61
2023/10/17 00:26:39;;;;;;;2.30;1.30;;;;;;;18.61;58.33;100369.06;5067855;28;20983;-62
2023/10/17 00:29:05;;;;;;;3.00;1.30;;;;;;;18.60;58.26;100370.25;5068425;28;20989;-62
2023/10/17 00:31:32;;;;;;;2.70;1.50;;;;;;;18.59;58.48;100365.75;5051813;28;20433;-62
2023/10/17 00:33:57;;;;;;;4.00;1.80;;;;;;;18.58;58.73;100364.94;5057276;28;20517;-62
2023/10/17 00:36:26;;;;;;;2.90;1.50;;;;;;;18.59;58.92;100366.59;5070928;28;20410;-62
2023/10/17 00:39:22;;;;;;;2.90;1.60;;;;;;;18.59;58.86;100368.59;5056046;28;20196;-62
2023/10/17 00:42:09;;;;;;;3.10;1.43;;;;;;;18.59;58.86;100372.31;5050614;28;20438;-62
2023/10/17 00:44:36;;;;;;;2.97;1.60;;;;;;;18.60;58.83;100376.81;5068739;28;20444;-62
2023/10/17 00:47:02;;;;;;;3.30;1.43;;;;;;;18.60;58.61;100368.25;5069085;28;20430;-62
2023/10/17 00:49:37;;;;;;;2.73;1.53;;;;;;;18.60;59.19;100356.81;5070628;28;20437;-62
2023/10/17 00:52:03;;;;;;;3.03;1.53;;;;;;;18.58;58.73;100353.50;5054681;28;20765;-62
2023/10/17 00:54:32;;;;;;;3.27;1.53;;;;;;;18.58;59.00;100350.66;5068662;28;20429;-62
2023/10/17 00:57:00;;;;;;;3.10;1.77;;;;;;;18.56;59.06;100347.31;5050601;28;20214;-62
2023/10/17 00:59:29;;;;;;;3.10;1.67;;;;;;;18.56;59.19;100338.75;5065633;28;20502;-62
2023/10/17 01:01:55;;;;;;;2.30;1.40;;;;;;;18.53;59.26;100333.81;5062027;28;20426;-62
2023/10/17 01:04:23;;;;;;;4.33;1.70;;;;;;;18.55;59.15;100324.81;5051539;28;20507;-62
2023/10/17 01:06:54;;;;;;;3.30;1.37;;;;;;;18.56;59.11;100335.88;5052938;28;20430;-62
2023/10/17 01:09:24;;;;;;;2.07;1.27;;;;;;;18.56;59.14;100327.31;5069711;28;20421;-62
2023/10/17 01:11:49;;;;;;;2.43;1.20;;;;;;;18.54;59.21;100332.59;5071399;28;20424;-62
2023/10/17 01:14:18;;;;;;;4.37;1.87;;;;;;;18.55;59.52;100324.81;5070475;28;20456;-62
2023/10/17 01:16:49;;;;;;;3.57;1.73;;;;;;;18.54;59.67;100331.75;5071517;28;20171;-62
2023/10/17 01:19:19;;;;;;;2.37;1.10;;;;;;;18.54;59.61;100332.59;5070432;28;20503;-62
2023/10/17 01:21:45;;;;;;;3.40;1.77;;;;;;;18.53;59.55;100327.25;5069844;28;20482;-62
2023/10/17 01:24:11;;;;;;;4.53;1.47;;;;;;;18.53;59.58;100333.81;5070404;28;20425;-62
2023/10/17 01:26:44;;;;;;;3.23;1.30;;;;;;;18.55;59.38;100331.38;5071023;28;20216;-62
2023/10/17 01:29:12;;;;;;;3.93;2.10;;;;;;;18.52;60.23;100323.56;5069541;28;20478;-61
2023/10/17 01:31:43;;;;;;;3.20;1.43;;;;;;;18.53;59.74;100327.25;5070392;28;20524;-62
2023/10/17 01:34:09;;;;;;;2.57;1.33;;;;;;;18.54;59.70;100331.75;5069750;28;20456;-62
2023/10/17 01:36:35;;;;;;;2.90;1.60;;;;;;;18.53;59.78;100336.66;5070865;28;20425;-62
2023/10/17 01:39:06;;;;;;;2.57;1.53;;;;;;;18.53;59.62;100321.53;5067807;28;20256;-62
2023/10/17 01:41:31;;;;;;;2.10;1.33;;;;;;;18.53;59.99;100333.81;5070231;28;20175;-62
2023/10/17 01:43:57;;;;;;;2.90;1.50;;;;;;;18.53;59.99;100335.81;5070869;28;20432;-62
2023/10/17 01:46:22;;;;;;;2.67;1.53;;;;;;;18.53;59.75;100333.81;5067426;28;20179;-61
2023/10/17 01:48:49;;;;;;;3.30;1.80;;;;;;;18.53;59.75;100330.94;5070631;28;20179;-62
2023/10/17 01:51:17;;;;;;;2.20;1.10;;;;;;;18.53;59.68;100333.81;5069393;28;20638;-62
2023/10/17 01:53:45;;;;;;;3.40;1.73;;;;;;;18.51;59.86;100336.19;5070015;28;20908;-62
2023/10/17 01:56:16;;;;;;;2.57;1.20;;;;;;;18.51;59.94;100338.25;5053855;28;20405;-62
2023/10/17 01:58:48;;;;;;;3.27;1.93;;;;;;;18.50;59.77;100340.28;5069335;28;20522;-62
2023/10/17 02:01:16;;;;;;;1.90;1.10;;;;;;;18.49;60.00;100347.19;5068932;28;20410;-62
2023/10/17 02:03:42;;;;;;;2.83;1.63;;;;;;;18.52;60.05;100348.47;5069342;28;21073;-62
2023/10/17 02:06:14;;;;;;;2.93;1.57;;;;;;;18.49;59.83;100352.91;5067248;28;20437;-62
2023/10/17 02:08:41;;;;;;;3.07;1.40;;;;;;;18.51;60.01;100350.50;5068339;28;20272;-62
2023/10/17 02:11:12;;;;;;;2.37;1.33;;;;;;;18.51;60.15;100346.81;5066648;28;20403;-62
2023/10/17 02:13:40;;;;;;;4.03;1.40;;;;;;;18.49;59.94;100338.63;5073966;28;20433;-62
2023/10/17 02:16:06;;;;;;;2.90;1.67;;;;;;;18.49;60.12;100341.47;5069854;28;20398;-61
2023/10/17 02:18:32;;;;;;;1.90;1.10;;;;;;;18.49;60.09;100338.63;5068046;28;21260;-61
2023/10/17 02:21:04;;;;;;;2.80;1.30;;;;;;;18.49;60.19;100343.50;5070181;28;20249;-62
2023/10/17 02:23:51;;;;;;;2.53;1.47;;;;;;;18.47;60.67;100338.16;5063014;28;20424;-62
2023/10/17 02:26:23;;;;;;;2.10;1.20;;;;;;;18.48;60.35;100336.97;5049174;28;20526;-62
2023/10/17 02:28:52;;;;;;;3.13;1.50;;;;;;;18.49;60.03;100335.75;5049589;28;20425;-62
2023/10/17 02:31:27;;;;;;;2.20;1.20;;;;;;;18.47;60.24;100341.00;5062536;28;20431;-62
2023/10/17 02:33:52;;;;;;;1.90;1.13;;;;;;;18.48;60.06;100354.13;5050907;28;20944;-62
2023/10/17 02:36:18;;;;;;;2.40;1.27;;;;;;;18.48;60.21;100347.56;5066600;28;20483;-62
2023/10/17 02:38:46;;;;;;;2.63;1.30;;;;;;;18.47;60.07;100341.00;5059078;28;20203;-62
2023/10/17 02:41:22;;;;;;;2.67;1.10;;;;;;;18.45;60.24;100349.16;5050667;28;20244;-62
2023/10/17 02:43:54;;;;;;;2.30;1.10;;;;;;;18.46;60.28;100353.66;5069785;28;20413;-62
2023/10/17 02:46:28;;;;;;;2.20;1.40;;;;;;;18.47;60.38;100355.31;5068968;28;20413;-62
2023/10/17 02:48:57;;;;;;;2.57;1.30;;;;;;;18.45;60.36;100354.88;5068919;28;20523;-59
2023/10/17 02:53:51;;;;;;;2.63;1.40;;;;;;;18.46;60.29;100347.94;5066069;28;21080;-59
2023/10/17 02:56:20;;;;;;;2.60;1.57;;;;;;;18.43;60.82;100348.72;5067367;28;20297;-59
2023/10/17 02:59:04;;;;;;;2.17;1.20;;;;;;;18.43;60.64;100345.03;5068176;28;21196;-59
2023/10/17 03:01:39;;;;;;;3.07;1.30;;;;;;;18.44;60.58;100347.50;5067996;28;20863;-59
2023/10/17 03:04:12;;;;;;;2.27;1.27;;;;;;;18.45;60.40;100348.31;5068812;28;20420;-59
2023/10/17 03:06:40;;;;;;;2.47;1.30;;;;;;;18.45;60.35;100354.03;5068183;28;21071;-59
2023/10/17 03:09:16;;;;;;;2.20;1.20;;;;;;;18.44;61.18;100350.38;5069355;28;20421;-59
2023/10/17 03:12:06;;;;;;;2.67;1.57;;;;;;;18.43;60.62;100339.31;5069115;28;20508;-59
2023/10/17 03:15:17;;;;;;;2.60;1.40;;;;;;;18.43;60.62;100340.16;5068137;28;20441;-59
2023/10/17 03:17:26;;;;;;;2.40;1.20;;;;;;;18.41;60.77;100345.41;5048790;28;20471;-59
2023/10/17 03:19:52;;;;;;;2.07;1.10;;;;;;;18.44;60.72;100346.66;5049206;28;20552;-59
2023/10/17 03:22:24;;;;;;;2.17;1.30;;;;;;;18.43;60.91;100345.88;5066850;28;20232;-59
2023/10/17 03:24:51;;;;;;;2.30;1.10;;;;;;;18.43;60.61;100345.88;5069218;28;20244;-59
2023/10/17 03:27:26;;;;;;;2.00;1.30;;;;;;;18.43;60.52;100345.03;5067643;28;21222;-59
2023/10/17 03:29:51;;;;;;;2.73;1.40;;;;;;;18.44;60.74;100340.97;5069167;28;20500;-59
2023/10/17 03:32:17;;;;;;;2.53;1.30;;;;;;;18.42;60.72;100349.91;5068224;28;20433;-59
2023/10/17 03:34:45;;;;;;;2.90;1.57;;;;;;;18.41;60.76;100342.53;5069106;28;20212;-59
2023/10/17 03:39:52;;;;;;;1.97;1.10;;;;;;;18.42;60.50;100349.09;5058113;28;20470;-59
2023/10/17 03:45:12;;;;;;;2.40;1.30;;;;;;;18.40;60.68;100340.06;5063355;28;20885;-59
2023/10/17 03:47:37;;;;;;;2.73;1.40;;;;;;;18.39;60.79;100346.97;5060004;28;20878;-59
2023/10/17 03:50:08;;;;;;;2.00;1.00;;;;;;;18.40;60.88;100340.06;5052850;28;20448;-59
2023/10/17 03:52:33;;;;;;;2.57;1.40;;;;;;;18.39;60.68;100332.69;5061655;28;20217;-59
2023/10/17 03:54:59;;;;;;;1.90;1.00;;;;;;;18.41;60.73;100330.31;5054139;28;20807;-59
2023/10/17 03:57:27;;;;;;;2.00;1.10;;;;;;;18.40;60.65;100338.03;5066547;28;20312;-59
2023/10/17 03:59:56;;;;;;;2.73;1.40;;;;;;;18.41;61.02;100333.16;5067375;28;20203;-59
2023/10/17 04:02:23;;;;;;;2.60;1.47;;;;;;;18.38;60.79;100334.75;5067733;28;20429;-59
2023/10/17 04:04:55;;;;;;;2.00;1.10;;;;;;;18.39;60.66;100327.81;5069105;28;20913;-59
2023/10/17 04:07:26;;;;;;;2.07;1.20;;;;;;;18.40;60.86;100322.91;5056007;28;20946;-59
2023/10/17 04:10:39;;;;;;;2.40;1.33;;;;;;;18.40;60.69;100329.47;5062680;28;20422;-59
2023/10/17 04:12:54;;;;;;;1.90;1.13;;;;;;;18.36;60.80;100328.56;5043800;28;20438;-59
2023/10/17 04:15:21;;;;;;;2.37;1.27;;;;;;;18.38;60.45;100317.59;5048891;28;21112;-59
2023/10/17 04:17:46;;;;;;;2.00;1.00;;;;;;;18.39;60.71;100333.53;5059301;28;20429;-59
2023/10/17 04:20:12;;;;;;;2.30;1.17;;;;;;;18.39;60.97;100333.53;5068577;28;20496;-59
2023/10/17 04:22:38;;;;;;;1.97;1.10;;;;;;;18.40;60.96;100340.06;5067588;28;20804;-59
2023/10/17 04:25:54;;;;;;;2.27;1.20;;;;;;;18.40;60.44;100342.91;5064585;28;20191;-58
2023/10/17 04:27:59;;;;;;;2.53;1.20;;;;;;;18.38;61.03;100331.03;5041439;28;20933;-60
2023/10/17 04:30:35;;;;;;;2.10;1.40;;;;;;;18.39;60.27;100326.97;5052087;28;20426;-60
2023/10/17 04:33:09;;;;;;;2.13;1.20;;;;;;;18.39;60.68;100315.53;5064889;28;20445;-59
2023/10/17 04:35:35;;;;;;;3.57;1.60;;;;;;;18.37;60.86;100315.91;5070736;28;20427;-59
2023/10/17 04:38:19;;;;;;;2.40;1.50;;;;;;;18.38;60.88;100320.44;5066977;28;20465;-59
2023/10/17 04:40:53;;;;;;;2.27;1.30;;;;;;;18.35;60.95;100308.94;5071123;28;20482;-59
2023/10/17 04:46:08;;;;;;;2.70;1.23;;;;;;;18.35;61.31;100308.94;5067866;28;20474;-59
2023/10/17 04:48:35;;;;;;;2.23;1.20;;;;;;;18.37;61.09;100310.19;5069862;28;21027;-59
2023/10/17 04:53:48;;;;;;;2.53;1.23;;;;;;;18.37;60.85;100310.19;5069759;28;20437;-60
2023/10/17 04:56:22;;;;;;;2.47;1.33;;;;;;;18.37;60.99;100307.34;5069923;28;20754;-60
2023/10/17 05:07:27;;;;;;;2.27;1.23;;;;;;;18.36;61.23;100308.56;5070617;28;20920;-62
2023/10/17 06:17:53;;;;;;;2.43;1.30;;;;;;;18.33;61.35;100352.19;5057759;28;20464;-62
2023/10/17 06:20:19;;;;;;;2.50;1.17;;;;;;;18.33;61.22;100355.06;5068292;28;20868;-61
2023/10/17 06:28:47;;;;;;;2.43;1.20;;;;;;;18.31;61.13;100360.28;5052611;28;20441;-61
2023/10/17 06:34:00;;;;;;;1.80;1.10;;;;;;;18.34;60.99;100373.00;5068867;28;20427;-62
2023/10/17 06:36:28;;;;;;;2.30;1.40;;;;;;;18.33;61.26;100380.78;5068514;28;20421;-61
2023/10/17 06:38:54;;;;;;;1.97;1.10;;;;;;;18.31;61.22;100377.44;5067831;28;20472;-62
2023/10/17 06:41:38;;;;;;;2.57;1.40;;;;;;;18.30;61.26;100380.66;5065323;28;20528;-61
2023/10/17 06:44:08;;;;;;;2.23;1.30;;;;;;;18.28;61.09;100369.63;5063131;28;20445;-62
2023/10/17 06:46:55;;;;;;;1.90;1.10;;;;;;;18.28;61.27;100372.47;5063228;28;21070;-62
2023/10/17 06:55:21;;;;;;;2.90;1.37;;;;;;;18.27;61.46;100370.00;5052741;28;20417;-62
2023/10/17 06:57:36;;;;;;;2.83;1.30;;;;;;;18.30;61.24;100372.06;5064641;28;20429;-62
2023/10/17 07:00:16;;;;;;;2.30;1.20;;;;;;;18.28;61.28;100363.06;5066760;28;21028;-62
2023/10/17 07:02:49;;;;;;;2.27;1.27;;;;;;;18.30;61.24;100367.19;5069626;28;21008;-62
2023/10/17 07:05:21;;;;;;;2.00;1.20;;;;;;;18.26;61.52;100371.22;5069223;28;20420;-62
2023/10/17 07:07:52;;;;;;;1.77;1.00;;;;;;;18.27;61.41;100370.81;5068311;28;20435;-61
2023/10/17 07:13:39;;;;;;;2.87;1.20;;;;;;;18.30;61.30;100360.66;5061899;28;20421;-60
2023/10/17 07:16:11;;;;;;;2.00;1.20;;;;;;;18.31;60.78;100353.75;5067965;28;20412;-61
2023/10/17 07:18:47;;;;;;;2.73;1.20;;;;;;;18.31;61.12;100363.13;5067118;28;20471;-62
2023/10/17 07:23:45;;;;;;;2.40;1.40;;;;;;;18.27;61.49;100359.38;5068455;28;20433;-61
2023/10/17 07:26:58;;;;;;;2.80;1.40;;;;;;;18.30;61.74;100361.50;5068121;28;20202;-61
2023/10/17 07:28:57;;;;;;;1.80;1.13;;;;;;;18.28;61.45;100357.34;5056014;28;20429;-62
2023/10/17 07:31:22;;;;;;;1.80;1.00;;;;;;;18.28;61.33;100361.06;5067072;28;20425;-61
2023/10/17 07:34:06;;;;;;;2.13;1.20;;;;;;;18.26;61.42;100354.06;5066490;28;20193;-62
2023/10/17 07:36:32;;;;;;;2.07;1.30;;;;;;;18.27;61.52;100353.66;5061389;28;20186;-61
2023/10/17 07:38:57;;;;;;;1.60;0.80;;;;;;;18.27;61.49;100362.22;5058889;28;20561;-61
2023/10/17 07:41:38;;;;;;;2.67;1.60;;;;;;;18.30;61.10;100360.66;5057487;28;20232;-62
2023/10/17 07:44:19;;;;;;;2.47;1.27;;;;;;;18.30;61.35;100360.66;5067016;28;20570;-62
2023/10/17 07:46:48;;;;;;;2.37;1.20;;;;;;;18.28;61.50;100363.91;5067414;28;20439;-61
2023/10/17 07:49:26;;;;;;;1.77;0.97;;;;;;;18.28;61.60;100365.94;5068598;28;20504;-62
2023/10/17 07:51:53;;;;;;;2.10;1.10;;;;;;;18.27;61.61;100359.38;5067917;28;20417;-62
2023/10/17 07:54:19;;;;;;;2.10;1.10;;;;;;;18.29;61.26;100356.97;5066535;28;20436;-61
2023/10/17 07:56:50;;;;;;;2.00;1.13;;;;;;;18.28;61.26;100352.47;5052686;28;20438;-62
2023/10/17 07:59:16;;;;;;;2.53;1.30;;;;;;;18.25;61.42;100349.53;5059619;28;20219;-62
2023/10/17 08:01:43;;;;;;;1.87;1.00;;;;;;;18.26;61.30;100360.59;5055311;28;20440;-62
2023/10/17 08:04:18;;;;;;;2.57;1.33;;;;;;;18.26;61.66;100363.44;5065982;28;20474;-61
2023/10/17 08:06:46;;;;;;;2.40;1.17;;;;;;;18.25;61.37;100358.09;5071718;28;20546;-61
2023/10/17 08:11:51;;;;;;;2.03;1.33;;;;;;;18.25;61.48;100366.66;5072298;28;20435;-61
2023/10/17 08:14:18;;;;;;;2.50;1.30;;;;;;;18.24;61.47;100370.75;5072253;28;20473;-61
2023/10/17 08:16:43;;;;;;;2.47;1.27;;;;;;;18.25;61.53;100370.38;5070408;28;20443;-62
2023/10/17 08:19:22;;;;;;;2.93;1.37;;;;;;;18.24;61.55;100365.88;5071190;28;20462;-62
2023/10/17 08:24:26;;;;;;;2.53;1.30;;;;;;;18.25;61.74;100372.38;5065559;28;20808;-62
2023/10/17 08:27:12;;;;;;;2.30;1.40;;;;;;;18.28;61.37;100365.94;5070943;28;20424;-62
2023/10/17 08:29:38;;;;;;;2.07;1.40;;;;;;;18.29;61.62;100356.97;5069913;28;21034;-61
2023/10/17 08:37:52;;;;;;;2.17;1.20;;;;;;;18.22;61.82;100371.09;5046991;28;20437;-60
2023/10/17 08:40:54;;;;;;;2.60;1.40;;;;;;;18.22;61.84;100367.44;5068954;28;20433;-61
2023/10/17 08:43:15;;;;;;;2.07;1.23;;;;;;;18.23;61.86;100369.94;5050092;28;20422;-61
2023/10/17 08:45:41;;;;;;;2.50;1.20;;;;;;;18.24;61.85;100374.44;5064206;28;20479;-62
2023/10/17 08:48:08;;;;;;;2.30;1.10;;;;;;;18.25;61.50;100375.25;5071602;28;20440;-61
2023/10/17 08:50:37;;;;;;;2.23;1.10;;;;;;;18.24;61.87;100382.16;5057746;28;20499;-61
2023/10/17 08:53:06;;;;;;;2.23;1.30;;;;;;;18.24;61.62;100380.16;5051883;28;20426;-62
2023/10/17 08:55:32;;;;;;;2.10;1.20;;;;;;;18.24;61.46;100377.28;5051395;28;20943;-61
2023/10/17 08:57:59;;;;;;;2.93;1.27;;;;;;;18.27;61.74;100370.00;5057204;28;20429;-62
2023/10/17 09:01:11;;;;;;;2.20;1.07;;;;;;;18.25;61.82;100364.66;5070704;28;20184;-61
2023/10/17 09:03:36;;;;;;;2.50;1.20;;;;;;;18.25;61.86;100363.81;5044068;28;20933;-62
2023/10/17 09:11:29;;;;;;;1.87;0.90;;;;;;;18.23;61.88;100372.78;5064816;28;20479;-61
2023/10/17 09:14:17;;;;;;;2.40;1.00;;;;;;;18.25;61.63;100372.38;5069404;28;20860;-62
2023/10/17 09:17:10;;;;;;;1.80;1.00;;;;;;;18.24;61.53;100368.72;5070158;28;20421;-61
2023/10/17 09:19:51;;;;;;;1.70;0.90;;;;;;;18.24;61.57;100370.75;5068604;28;20477;-61
2023/10/17 09:22:24;;;;;;;2.30;1.13;;;;;;;18.27;61.63;100361.41;5068072;28;20482;-62
2023/10/17 09:24:50;;;;;;;2.63;1.30;;;;;;;18.26;61.87;100369.16;5069229;28;20508;-62
2023/10/17 09:27:17;;;;;;;2.03;1.03;;;;;;;18.26;61.71;100363.44;5069148;28;20421;-62
2023/10/17 09:29:49;;;;;;;2.57;1.03;;;;;;;18.27;61.85;100382.22;5069241;28;21148;-61
2023/10/17 09:32:34;;;;;;;1.97;1.00;;;;;;;18.28;61.67;100378.19;5069883;28;20870;-61
2023/10/17 09:35:03;;;;;;;1.90;1.20;;;;;;;18.25;61.78;100369.53;5069960;28;20743;-61
2023/10/17 09:37:28;;;;;;;1.70;1.00;;;;;;;18.22;62.08;100373.16;5070732;28;21191;-61
2023/10/17 09:39:54;;;;;;;1.67;1.00;;;;;;;18.26;61.39;100374.06;5069976;28;20530;-62
2023/10/17 09:42:20;;;;;;;2.17;1.03;;;;;;;18.24;61.83;100374.44;5067183;28;20191;-61
2023/10/17 09:44:45;;;;;;;2.10;1.33;;;;;;;18.23;61.82;100374.81;5050897;28;20858;-62
2023/10/17 09:47:11;;;;;;;1.90;1.00;;;;;;;18.23;62.02;100372.78;5066845;28;20573;-61
2023/10/17 09:49:43;;;;;;;2.17;1.10;;;;;;;18.24;61.84;100373.59;5069965;28;20555;-61
2023/10/17 09:52:09;;;;;;;1.80;0.97;;;;;;;18.22;62.06;100376.81;5068829;28;20187;-61
2023/10/17 09:54:35;;;;;;;1.90;1.10;;;;;;;18.23;62.02;100364.22;5065627;28;20423;-61
2023/10/17 09:57:02;;;;;;;2.40;1.07;;;;;;;18.28;61.75;100361.06;5070383;28;20218;-61
2023/10/17 09:59:28;;;;;;;2.13;1.20;;;;;;;18.26;61.82;100363.44;5053258;28;22159;-62
2023/10/17 10:01:56;;;;;;;2.97;1.50;;;;;;;18.29;61.79;100353.28;5062379;28;20418;-62
2023/10/17 10:04:22;;;;;;;1.97;1.23;;;;;;;18.24;61.83;100351.56;5058776;28;20433;-62
2023/10/17 10:06:47;;;;;;;2.00;1.03;;;;;;;18.28;61.47;100355.34;5069434;28;20429;-62
2023/10/17 10:09:17;;;;;;;1.97;1.00;;;;;;;18.25;61.97;100352.38;5053493;28;20176;-62
2023/10/17 10:11:52;;;;;;;1.63;0.90;;;;;;;18.26;61.80;100357.72;5048882;28;20164;-62
2023/10/17 10:14:23;;;;;;;2.17;1.10;;;;;;;18.25;61.94;100366.66;5064830;28;20449;-62
2023/10/17 10:16:57;;;;;;;2.20;1.20;;;;;;;18.27;61.84;100358.56;5068868;28;20500;-61
2023/10/17 10:19:23;;;;;;;1.93;1.07;;;;;;;18.29;61.70;100356.97;5067519;28;20964;-62
2023/10/17 10:21:58;;;;;;;1.80;0.97;;;;;;;18.27;62.03;100359.38;5064517;28;20485;-61
2023/10/17 10:24:31;;;;;;;1.83;1.00;;;;;;;18.26;61.83;100365.50;5066724;28;20186;-62
2023/10/17 10:27:27;;;;;;;2.47;0.97;;;;;;;18.28;61.86;100357.34;5049284;28;20430;-61
2023/10/17 10:29:53;;;;;;;1.97;1.00;;;;;;;18.29;61.62;100350.44;5049744;28;20402;-62
2023/10/17 10:32:25;;;;;;;2.00;1.10;;;;;;;18.29;61.72;100351.28;5067279;28;20492;-62
2023/10/17 10:34:51;;;;;;;1.60;0.90;;;;;;;18.28;61.91;100348.78;5069791;28;20820;-62
2023/10/17 10:37:17;;;;;;;2.33;1.20;;;;;;;18.27;62.00;100347.94;5068769;28;20820;-62
2023/10/17 10:40:17;;;;;;;1.80;1.03;;;;;;;18.27;61.82;100341.41;5069547;28;20457;-62
2023/10/17 10:42:47;;;;;;;1.80;0.90;;;;;;;18.27;62.01;100341.41;5061362;28;20192;-62
2023/10/17 10:45:32;;;;;;;2.67;1.20;;;;;;;18.26;61.86;100337.72;5068593;28;20416;-61
2023/10/17 10:48:01;;;;;;;1.70;0.97;;;;;;;18.28;61.99;100335.34;5068662;28;20417;-62
2023/10/17 10:50:36;;;;;;;1.80;0.90;;;;;;;18.29;61.69;100333.28;5067573;28;20420;-62
2023/10/17 10:53:17;;;;;;;1.80;1.00;;;;;;;18.26;61.84;100337.72;5067695;28;21345;-61
2023/10/17 10:55:43;;;;;;;2.17;1.10;;;;;;;18.26;62.17;100334.88;5055781;28;20441;-62
2023/10/17 10:58:10;;;;;;;2.13;1.27;;;;;;;18.23;62.23;100329.94;5031303;28;20418;-62
2023/10/17 11:00:36;;;;;;;2.03;1.10;;;;;;;18.29;61.94;100336.97;5049057;28;20156;-61
2023/10/17 11:03:01;;;;;;;1.90;1.17;;;;;;;18.29;61.97;100328.41;5068813;28;20444;-62
2023/10/17 11:05:27;;;;;;;1.80;1.03;;;;;;;18.29;61.98;100322.69;5067238;28;20186;-62
2023/10/17 11:08:00;;;;;;;2.53;1.00;;;;;;;18.29;61.77;100327.56;5069087;28;20158;-62
2023/10/17 11:10:25;;;;;;;1.87;1.30;;;;;;;18.29;62.02;100314.13;5067192;28;20573;-62
2023/10/17 11:12:53;;;;;;;1.97;1.03;;;;;;;18.30;61.66;100309.19;5067524;28;20426;-62
2023/10/17 11:15:19;;;;;;;1.90;1.00;;;;;;;18.28;62.05;100298.19;5067416;28;20210;-62
2023/10/17 11:17:45;;;;;;;2.07;1.20;;;;;;;18.28;61.91;100309.59;5067704;28;20444;-62
2023/10/17 11:20:18;;;;;;;2.50;1.30;;;;;;;18.27;62.00;100302.22;5067044;28;20481;-61
2023/10/17 11:22:46;;;;;;;1.57;0.77;;;;;;;18.32;62.16;100309.66;5070841;28;20171;-62
2023/10/17 11:25:21;;;;;;;2.83;1.20;;;;;;;18.26;61.94;100305.47;5069608;28;20481;-62
2023/10/17 11:27:53;;;;;;;2.33;1.40;;;;;;;18.26;62.24;100303.44;5067685;28;20499;-61
2023/10/17 11:30:20;;;;;;;2.00;1.10;;;;;;;18.29;62.01;100290.41;5068738;28;20417;-61
2023/10/17 11:32:47;;;;;;;1.80;0.83;;;;;;;18.27;62.15;100293.63;5068412;28;20425;-62
2023/10/17 11:35:29;;;;;;;2.83;0.90;;;;;;;18.25;61.93;100293.22;5069823;28;20439;-62
2023/10/17 11:37:55;;;;;;;1.80;1.00;;;;;;;18.29;62.13;100290.41;5072014;28;20416;-61
2023/10/17 11:40:43;;;;;;;2.57;1.33;;;;;;;18.29;61.82;100284.69;5071222;28;20491;-62
2023/10/17 11:43:18;;;;;;;2.00;1.10;;;;;;;18.27;62.07;100290.78;5053407;28;20445;-62
2023/10/17 11:45:45;;;;;;;1.77;0.93;;;;;;;18.28;61.90;100286.75;5072540;28;20421;-62
2023/10/17 11:48:26;;;;;;;1.77;1.00;;;;;;;18.27;62.16;100281.41;5071856;28;20445;-62
2023/10/17 11:51:17;;;;;;;1.50;0.90;;;;;;;18.28;61.92;100281.03;5072913;28;20413;-62
2023/10/17 11:54:06;;;;;;;2.40;1.20;;;;;;;18.25;62.07;100280.94;5060588;28;20430;-61
2023/10/17 11:56:32;;;;;;;1.80;0.97;;;;;;;18.30;62.02;100272.06;5071030;28;20433;-62
2023/10/17 11:58:58;;;;;;;1.73;0.90;;;;;;;18.26;62.11;100265.47;5069487;28;20460;-62
2023/10/17 12:01:24;;;;;;;2.57;1.00;;;;;;;18.27;62.02;100276.50;5060526;28;20517;-62
2023/10/17 12:03:57;;;;;;;2.47;1.27;;;;;;;18.28;62.01;100266.75;5055343;28;20178;-62
2023/10/17 12:06:28;;;;;;;1.97;1.10;;;;;;;18.26;61.87;100274.84;5060315;28;20209;-61
2023/10/17 12:08:56;;;;;;;1.90;1.10;;;;;;;18.29;62.11;100264.69;5051183;28;20418;-62
2023/10/17 12:11:24;;;;;;;1.70;1.00;;;;;;;18.27;62.15;100267.94;5061292;28;20444;-61
2023/10/17 12:13:51;;;;;;;2.10;1.00;;;;;;;18.28;62.42;100257.31;5071227;28;20445;-62
2023/10/17 12:16:17;;;;;;;1.80;1.10;;;;;;;18.28;62.11;100257.31;5070166;28;20413;-62
2023/10/17 12:18:44;;;;;;;1.97;1.10;;;;;;;18.27;61.99;100250.78;5071080;28;20464;-61
2023/10/17 12:21:14;;;;;;;2.23;0.90;;;;;;;18.28;62.21;100257.31;5072155;28;20673;-61
2023/10/17 12:23:42;;;;;;;1.70;0.90;;;;;;;18.25;62.03;100240.94;5070968;28;20441;-61
2023/10/17 12:26:14;;;;;;;1.67;0.93;;;;;;;18.28;61.90;100243.88;5071069;28;20432;-61
2023/10/17 12:28:42;;;;;;;2.03;1.03;;;;;;;18.27;62.25;100233.63;5066939;28;20940;-61
2023/10/17 12:31:12;;;;;;;1.73;0.93;;;;;;;18.29;62.10;100234.09;5072235;28;20504;-62
2023/10/17 12:33:37;;;;;;;1.70;1.00;;;;;;;18.25;62.46;100230.34;5071347;28;20512;-62
2023/10/17 12:36:06;;;;;;;2.30;1.00;;;;;;;18.25;62.32;100230.34;5071968;28;20421;-61
2023/10/17 12:38:34;;;;;;;2.43;1.53;;;;;;;18.27;62.36;100227.09;5068837;28;20282;-61
2023/10/17 12:41:09;;;;;;;1.70;0.90;;;;;;;18.25;62.25;100233.19;5069333;28;20608;-62
2023/10/17 12:43:35;;;;;;;2.20;1.00;;;;;;;18.27;62.33;100225.06;5071885;28;21081;-62
2023/10/17 12:46:01;;;;;;;2.43;1.00;;;;;;;18.26;61.91;100214.84;5060266;28;20465;-62
2023/10/17 12:48:26;;;;;;;1.80;0.90;;;;;;;18.26;62.41;100219.75;5068238;28;20921;-61
2023/10/17 12:50:52;;;;;;;2.07;1.10;;;;;;;18.27;62.42;100215.69;5069325;28;20179;-61
2023/10/17 12:53:17;;;;;;;1.87;0.90;;;;;;;18.27;62.32;100222.19;5069117;28;20183;-61
2023/10/17 12:55:43;;;;;;;1.73;1.00;;;;;;;18.26;62.14;100217.69;5057712;28;20172;-61
2023/10/17 12:58:10;;;;;;;2.10;1.10;;;;;;;18.26;62.25;100219.75;5049591;28;20167;-61
2023/10/17 13:00:41;;;;;;;2.03;1.03;;;;;;;18.26;62.36;100220.56;5069754;28;20258;-61
2023/10/17 13:03:07;;;;;;;2.23;1.03;;;;;;;18.28;62.17;100215.31;5069853;28;20433;-61
2023/10/17 13:05:32;;;;;;;2.00;1.17;;;;;;;18.26;62.47;100202.59;5070278;28;20920;-61
2023/10/17 13:07:58;;;;;;;1.83;1.00;;;;;;;18.28;62.24;100203.03;5070467;28;20600;-61
2023/10/17 13:10:23;;;;;;;1.70;0.80;;;;;;;18.28;62.65;100206.72;5069295;28;20537;-61
2023/10/17 13:12:49;;;;;;;1.90;1.10;;;;;;;18.27;62.37;100201.38;5070183;28;20237;-61
2023/10/17 13:15:16;;;;;;;1.80;1.10;;;;;;;18.28;62.31;100195.31;5069564;28;20199;-61
2023/10/17 13:17:42;;;;;;;2.10;1.07;;;;;;;18.29;62.36;100201.81;5071263;28;20834;-62
2023/10/17 13:20:07;;;;;;;1.70;0.90;;;;;;;18.28;62.23;100194.47;5070847;28;20476;-61
2023/10/17 13:22:41;;;;;;;2.30;1.20;;;;;;;18.29;62.15;100204.69;5070193;28;20205;-62
2023/10/17 13:25:10;;;;;;;1.77;1.00;;;;;;;18.31;62.32;100203.09;5066090;28;20580;-62
2023/10/17 13:27:37;;;;;;;2.23;1.37;;;;;;;18.34;62.19;100201.53;5051103;28;20502;-62
2023/10/17 13:30:04;;;;;;;1.90;1.00;;;;;;;18.29;62.02;100191.22;5050997;28;20411;-62
2023/10/17 13:32:31;;;;;;;1.80;1.10;;;;;;;18.28;62.53;100188.75;5067952;28;20459;-61
2023/10/17 13:34:57;;;;;;;2.00;1.00;;;;;;;18.29;62.14;100185.50;5070898;28;20424;-61
2023/10/17 13:37:22;;;;;;;1.70;0.90;;;;;;;18.32;62.40;100192.50;5070802;28;20481;-62
2023/10/17 13:39:47;;;;;;;1.90;0.90;;;;;;;18.29;62.29;100182.66;5069981;28;20521;-62
2023/10/17 13:42:13;;;;;;;1.67;0.83;;;;;;;18.29;62.25;100176.94;5070375;28;20175;-61
2023/10/17 13:44:38;;;;;;;2.10;1.10;;;;;;;18.28;62.23;100177.31;5069454;28;20175;-62
2023/10/17 13:47:07;;;;;;;1.80;0.97;;;;;;;18.29;62.42;100170.38;5059420;28;20187;-62
2023/10/17 13:49:34;;;;;;;1.67;0.90;;;;;;;18.32;62.33;100161.91;5058663;28;20818;-62
2023/10/17 13:51:59;;;;;;;1.80;1.10;;;;;;;18.28;62.09;100158.16;5064364;28;20531;-62